sensor_id;sensor_type;location;lat;lon;timestamp;P1;durP1;ratioP1;P2;durP2;ratioP2
37701;SDS011;23548;51.196;6.838;2022-12-18T00:03:44;26.77;;;13.02;;
37701;SDS011;23548;51.196;6.838;2022-12-18T00:06:10;23.63;;;12.25;;
37701;SDS011;23548;51.196;6.838;2022-12-18T00:08:36;26.25;;;12.18;;
37701;SDS011;23548;51.196;6.838;2022-12-18T00:11:07;24.95;;;11.82;;
37701;SDS011;23548;51.196;6.838;2022-12-18T00:13:35;24.45;;;12.48;;
37701;SDS011;23548;51.196;6.838;2022-12-18T00:16:05;24.20;;;11.63;;
37701;SDS011;23548;51.196;6.838;2022-12-18T00:18:33;26.95;;;13.07;;
37701;SDS011;23548;51.196;6.838;2022-12-18T00:21:00;23.42;;;12.02;;
37701;SDS011;23548;51.196;6.838;2022-12-18T00:23:27;25.58;;;12.32;;
37701;SDS011;23548;51.196;6.838;2022-12-18T00:25:53;22.98;;;12.00;;
37701;SDS011;23548;51.196;6.838;2022-12-18T00:28:19;21.77;;;12.20;;
37701;SDS011;23548;51.196;6.838;2022-12-18T00:30:45;23.45;;;12.02;;
37701;SDS011;23548;51.196;6.838;2022-12-18T00:33:10;24.50;;;12.25;;
37701;SDS011;23548;51.196;6.838;2022-12-18T00:35:36;23.08;;;11.75;;
37701;SDS011;23548;51.196;6.838;2022-12-18T00:38:02;22.40;;;11.32;;
37701;SDS011;23548;51.196;6.838;2022-12-18T00:40:28;21.58;;;11.95;;
37701;SDS011;23548;51.196;6.838;2022-12-18T00:42:53;25.77;;;11.90;;
37701;SDS011;23548;51.196;6.838;2022-12-18T00:45:29;24.23;;;11.95;;
37701;SDS011;23548;51.196;6.838;2022-12-18T00:47:56;23.65;;;12.02;;
37701;SDS011;23548;51.196;6.838;2022-12-18T00:50:22;26.10;;;13.40;;
37701;SDS011;23548;51.196;6.838;2022-12-18T00:52:49;24.15;;;11.73;;
37701;SDS011;23548;51.196;6.838;2022-12-18T00:55:15;23.25;;;11.90;;
37701;SDS011;23548;51.196;6.838;2022-12-18T00:57:41;27.55;;;13.60;;
37701;SDS011;23548;51.196;6.838;2022-12-18T01:00:08;27.27;;;12.90;;
37701;SDS011;23548;51.196;6.838;2022-12-18T01:02:35;24.58;;;12.48;;
37701;SDS011;23548;51.196;6.838;2022-12-18T01:05:01;24.77;;;13.05;;
37701;SDS011;23548;51.196;6.838;2022-12-18T01:07:27;26.75;;;12.90;;
37701;SDS011;23548;51.196;6.838;2022-12-18T01:09:53;26.13;;;12.52;;
37701;SDS011;23548;51.196;6.838;2022-12-18T01:12:18;29.30;;;12.55;;
37701;SDS011;23548;51.196;6.838;2022-12-18T01:14:44;25.40;;;12.30;;
37701;SDS011;23548;51.196;6.838;2022-12-18T01:17:09;25.15;;;13.05;;
37701;SDS011;23548;51.196;6.838;2022-12-18T01:19:35;31.77;;;13.30;;
37701;SDS011;23548;51.196;6.838;2022-12-18T01:22:01;25.42;;;13.52;;
37701;SDS011;23548;51.196;6.838;2022-12-18T01:24:26;27.25;;;14.38;;
37701;SDS011;23548;51.196;6.838;2022-12-18T01:26:52;26.27;;;13.27;;
37701;SDS011;23548;51.196;6.838;2022-12-18T01:29:18;24.83;;;13.38;;
37701;SDS011;23548;51.196;6.838;2022-12-18T01:31:43;27.80;;;12.32;;
37701;SDS011;23548;51.196;6.838;2022-12-18T01:34:09;23.50;;;12.57;;
37701;SDS011;23548;51.196;6.838;2022-12-18T01:36:36;24.17;;;11.80;;
37701;SDS011;23548;51.196;6.838;2022-12-18T01:39:05;23.88;;;11.98;;
37701;SDS011;23548;51.196;6.838;2022-12-18T01:41:38;27.02;;;12.73;;
37701;SDS011;23548;51.196;6.838;2022-12-18T01:47:26;25.00;;;12.18;;
37701;SDS011;23548;51.196;6.838;2022-12-18T01:49:53;23.25;;;11.73;;
37701;SDS011;23548;51.196;6.838;2022-12-18T01:52:20;23.00;;;12.02;;
37701;SDS011;23548;51.196;6.838;2022-12-18T01:54:49;26.38;;;12.18;;
37701;SDS011;23548;51.196;6.838;2022-12-18T01:57:16;24.73;;;12.45;;
37701;SDS011;23548;51.196;6.838;2022-12-18T01:59:42;26.02;;;13.05;;
37701;SDS011;23548;51.196;6.838;2022-12-18T02:02:12;26.88;;;12.13;;
37701;SDS011;23548;51.196;6.838;2022-12-18T02:04:40;24.63;;;11.73;;
37701;SDS011;23548;51.196;6.838;2022-12-18T02:07:08;24.10;;;12.10;;
37701;SDS011;23548;51.196;6.838;2022-12-18T02:09:50;24.40;;;12.30;;
37701;SDS011;23548;51.196;6.838;2022-12-18T02:12:24;25.30;;;12.40;;
37701;SDS011;23548;51.196;6.838;2022-12-18T02:15:05;28.38;;;13.18;;
37701;SDS011;23548;51.196;6.838;2022-12-18T02:17:38;29.05;;;12.40;;
37701;SDS011;23548;51.196;6.838;2022-12-18T02:22:55;25.25;;;12.68;;
37701;SDS011;23548;51.196;6.838;2022-12-18T02:28:13;24.92;;;11.18;;
37701;SDS011;23548;51.196;6.838;2022-12-18T02:30:41;23.80;;;11.35;;
37701;SDS011;23548;51.196;6.838;2022-12-18T02:33:09;25.75;;;12.13;;
37701;SDS011;23548;51.196;6.838;2022-12-18T02:35:37;23.90;;;12.65;;
37701;SDS011;23548;51.196;6.838;2022-12-18T02:38:05;28.42;;;12.80;;
37701;SDS011;23548;51.196;6.838;2022-12-18T02:40:31;26.98;;;12.82;;
37701;SDS011;23548;51.196;6.838;2022-12-18T02:43:10;26.08;;;12.52;;
37701;SDS011;23548;51.196;6.838;2022-12-18T02:45:47;23.92;;;11.95;;
37701;SDS011;23548;51.196;6.838;2022-12-18T02:53:38;24.60;;;12.43;;
37701;SDS011;23548;51.196;6.838;2022-12-18T02:56:25;25.92;;;12.65;;
37701;SDS011;23548;51.196;6.838;2022-12-18T02:59:28;21.05;;;11.63;;
37701;SDS011;23548;51.196;6.838;2022-12-18T03:02:01;26.15;;;12.52;;
37701;SDS011;23548;51.196;6.838;2022-12-18T03:07:15;26.63;;;12.18;;
37701;SDS011;23548;51.196;6.838;2022-12-18T03:09:46;22.88;;;11.55;;
37701;SDS011;23548;51.196;6.838;2022-12-18T03:12:20;23.00;;;11.38;;
37701;SDS011;23548;51.196;6.838;2022-12-18T03:15:06;29.38;;;14.20;;
37701;SDS011;23548;51.196;6.838;2022-12-18T03:17:46;27.92;;;12.77;;
37701;SDS011;23548;51.196;6.838;2022-12-18T03:20:28;22.45;;;11.48;;
37701;SDS011;23548;51.196;6.838;2022-12-18T03:23:02;24.60;;;11.93;;
37701;SDS011;23548;51.196;6.838;2022-12-18T03:25:34;24.30;;;11.85;;
37701;SDS011;23548;51.196;6.838;2022-12-18T03:28:05;22.15;;;11.32;;
37701;SDS011;23548;51.196;6.838;2022-12-18T03:30:34;22.35;;;11.27;;
37701;SDS011;23548;51.196;6.838;2022-12-18T03:35:45;23.92;;;11.43;;
37701;SDS011;23548;51.196;6.838;2022-12-18T03:38:11;22.42;;;11.43;;
37701;SDS011;23548;51.196;6.838;2022-12-18T03:46:02;24.27;;;11.38;;
37701;SDS011;23548;51.196;6.838;2022-12-18T03:48:36;23.60;;;12.02;;
37701;SDS011;23548;51.196;6.838;2022-12-18T03:51:10;23.10;;;12.10;;
37701;SDS011;23548;51.196;6.838;2022-12-18T03:54:00;23.02;;;11.93;;
37701;SDS011;23548;51.196;6.838;2022-12-18T03:56:29;23.77;;;11.38;;
37701;SDS011;23548;51.196;6.838;2022-12-18T03:58:58;22.00;;;11.27;;
37701;SDS011;23548;51.196;6.838;2022-12-18T04:01:30;24.65;;;12.23;;
37701;SDS011;23548;51.196;6.838;2022-12-18T04:04:00;21.73;;;11.27;;
37701;SDS011;23548;51.196;6.838;2022-12-18T04:06:28;20.92;;;11.27;;
37701;SDS011;23548;51.196;6.838;2022-12-18T04:08:54;23.95;;;11.82;;
37701;SDS011;23548;51.196;6.838;2022-12-18T04:11:21;24.42;;;11.75;;
37701;SDS011;23548;51.196;6.838;2022-12-18T04:13:47;23.02;;;11.38;;
37701;SDS011;23548;51.196;6.838;2022-12-18T04:16:13;24.42;;;11.20;;
37701;SDS011;23548;51.196;6.838;2022-12-18T04:18:39;22.38;;;11.38;;
37701;SDS011;23548;51.196;6.838;2022-12-18T04:21:05;21.90;;;11.32;;
37701;SDS011;23548;51.196;6.838;2022-12-18T04:23:30;24.80;;;11.82;;
37701;SDS011;23548;51.196;6.838;2022-12-18T04:25:56;22.95;;;11.93;;
37701;SDS011;23548;51.196;6.838;2022-12-18T04:28:22;24.60;;;12.43;;
37701;SDS011;23548;51.196;6.838;2022-12-18T04:30:48;26.30;;;12.27;;
37701;SDS011;23548;51.196;6.838;2022-12-18T04:33:13;26.83;;;12.38;;
37701;SDS011;23548;51.196;6.838;2022-12-18T04:35:39;26.10;;;12.68;;
37701;SDS011;23548;51.196;6.838;2022-12-18T04:38:06;23.25;;;11.48;;
37701;SDS011;23548;51.196;6.838;2022-12-18T04:40:33;24.55;;;11.55;;
37701;SDS011;23548;51.196;6.838;2022-12-18T04:42:59;24.80;;;12.48;;
37701;SDS011;23548;51.196;6.838;2022-12-18T04:45:25;27.33;;;12.13;;
37701;SDS011;23548;51.196;6.838;2022-12-18T04:47:51;26.63;;;11.82;;
37701;SDS011;23548;51.196;6.838;2022-12-18T04:50:16;21.52;;;11.05;;
37701;SDS011;23548;51.196;6.838;2022-12-18T04:52:42;28.33;;;11.75;;
37701;SDS011;23548;51.196;6.838;2022-12-18T04:55:08;23.92;;;11.07;;
37701;SDS011;23548;51.196;6.838;2022-12-18T04:57:34;22.05;;;11.40;;
37701;SDS011;23548;51.196;6.838;2022-12-18T04:59:59;25.85;;;11.68;;
37701;SDS011;23548;51.196;6.838;2022-12-18T05:02:25;22.58;;;11.35;;
37701;SDS011;23548;51.196;6.838;2022-12-18T05:04:51;25.33;;;12.55;;
37701;SDS011;23548;51.196;6.838;2022-12-18T05:07:17;21.65;;;10.73;;
37701;SDS011;23548;51.196;6.838;2022-12-18T05:09:42;20.33;;;10.35;;
37701;SDS011;23548;51.196;6.838;2022-12-18T05:12:08;19.77;;;10.63;;
37701;SDS011;23548;51.196;6.838;2022-12-18T05:14:34;22.70;;;11.27;;
37701;SDS011;23548;51.196;6.838;2022-12-18T05:17:00;24.15;;;11.57;;
37701;SDS011;23548;51.196;6.838;2022-12-18T05:19:26;24.90;;;11.25;;
37701;SDS011;23548;51.196;6.838;2022-12-18T05:21:51;22.48;;;11.23;;
37701;SDS011;23548;51.196;6.838;2022-12-18T05:24:17;23.48;;;11.07;;
37701;SDS011;23548;51.196;6.838;2022-12-18T05:26:43;23.42;;;11.05;;
37701;SDS011;23548;51.196;6.838;2022-12-18T05:29:08;22.48;;;11.88;;
37701;SDS011;23548;51.196;6.838;2022-12-18T05:31:37;19.08;;;10.82;;
37701;SDS011;23548;51.196;6.838;2022-12-18T05:34:03;23.70;;;11.82;;
37701;SDS011;23548;51.196;6.838;2022-12-18T05:36:29;24.42;;;12.20;;
37701;SDS011;23548;51.196;6.838;2022-12-18T05:38:55;23.08;;;11.02;;
37701;SDS011;23548;51.196;6.838;2022-12-18T05:41:21;22.10;;;11.48;;
37701;SDS011;23548;51.196;6.838;2022-12-18T05:43:46;25.45;;;11.65;;
37701;SDS011;23548;51.196;6.838;2022-12-18T05:46:14;21.42;;;11.23;;
37701;SDS011;23548;51.196;6.838;2022-12-18T05:48:41;23.02;;;12.40;;
37701;SDS011;23548;51.196;6.838;2022-12-18T05:51:08;24.08;;;12.05;;
37701;SDS011;23548;51.196;6.838;2022-12-18T05:53:36;21.23;;;11.50;;
37701;SDS011;23548;51.196;6.838;2022-12-18T05:56:03;20.83;;;11.43;;
37701;SDS011;23548;51.196;6.838;2022-12-18T05:58:30;21.25;;;11.68;;
37701;SDS011;23548;51.196;6.838;2022-12-18T06:00:57;22.85;;;11.35;;
37701;SDS011;23548;51.196;6.838;2022-12-18T06:03:30;19.90;;;10.90;;
37701;SDS011;23548;51.196;6.838;2022-12-18T06:05:56;23.23;;;11.57;;
37701;SDS011;23548;51.196;6.838;2022-12-18T06:08:25;21.45;;;11.40;;
37701;SDS011;23548;51.196;6.838;2022-12-18T06:10:51;19.20;;;10.18;;
37701;SDS011;23548;51.196;6.838;2022-12-18T06:13:20;21.92;;;10.68;;
37701;SDS011;23548;51.196;6.838;2022-12-18T06:15:46;20.92;;;11.02;;
37701;SDS011;23548;51.196;6.838;2022-12-18T06:18:12;20.65;;;10.23;;
37701;SDS011;23548;51.196;6.838;2022-12-18T06:20:38;20.42;;;10.95;;
37701;SDS011;23548;51.196;6.838;2022-12-18T06:23:06;22.00;;;10.43;;
37701;SDS011;23548;51.196;6.838;2022-12-18T06:25:32;20.60;;;11.13;;
37701;SDS011;23548;51.196;6.838;2022-12-18T06:27:58;20.48;;;10.75;;
37701;SDS011;23548;51.196;6.838;2022-12-18T06:30:24;21.05;;;10.40;;
37701;SDS011;23548;51.196;6.838;2022-12-18T06:32:49;21.85;;;10.82;;
37701;SDS011;23548;51.196;6.838;2022-12-18T06:35:16;21.27;;;10.13;;
37701;SDS011;23548;51.196;6.838;2022-12-18T06:37:41;20.45;;;9.95;;
37701;SDS011;23548;51.196;6.838;2022-12-18T06:40:08;21.50;;;9.95;;
37701;SDS011;23548;51.196;6.838;2022-12-18T06:42:34;20.00;;;10.65;;
37701;SDS011;23548;51.196;6.838;2022-12-18T06:44:59;19.20;;;9.82;;
37701;SDS011;23548;51.196;6.838;2022-12-18T06:47:25;21.20;;;10.82;;
37701;SDS011;23548;51.196;6.838;2022-12-18T06:49:51;20.20;;;10.52;;
37701;SDS011;23548;51.196;6.838;2022-12-18T06:52:16;22.08;;;11.05;;
37701;SDS011;23548;51.196;6.838;2022-12-18T06:54:42;21.25;;;10.23;;
37701;SDS011;23548;51.196;6.838;2022-12-18T06:57:08;19.90;;;9.98;;
37701;SDS011;23548;51.196;6.838;2022-12-18T06:59:34;27.30;;;12.20;;
37701;SDS011;23548;51.196;6.838;2022-12-18T07:01:59;24.67;;;12.10;;
37701;SDS011;23548;51.196;6.838;2022-12-18T07:04:29;27.92;;;13.20;;
37701;SDS011;23548;51.196;6.838;2022-12-18T07:06:55;34.72;;;17.77;;
37701;SDS011;23548;51.196;6.838;2022-12-18T07:09:20;28.27;;;15.10;;
37701;SDS011;23548;51.196;6.838;2022-12-18T07:11:46;24.63;;;11.30;;
37701;SDS011;23548;51.196;6.838;2022-12-18T07:14:11;21.98;;;12.20;;
37701;SDS011;23548;51.196;6.838;2022-12-18T07:16:37;22.80;;;10.75;;
37701;SDS011;23548;51.196;6.838;2022-12-18T07:19:03;21.95;;;11.82;;
37701;SDS011;23548;51.196;6.838;2022-12-18T07:21:29;22.80;;;10.07;;
37701;SDS011;23548;51.196;6.838;2022-12-18T07:23:54;22.25;;;11.20;;
37701;SDS011;23548;51.196;6.838;2022-12-18T07:26:20;21.40;;;10.80;;
37701;SDS011;23548;51.196;6.838;2022-12-18T07:28:47;25.27;;;11.88;;
37701;SDS011;23548;51.196;6.838;2022-12-18T07:31:17;23.08;;;12.52;;
37701;SDS011;23548;51.196;6.838;2022-12-18T07:33:45;23.48;;;10.88;;
37701;SDS011;23548;51.196;6.838;2022-12-18T07:36:11;21.33;;;11.05;;
37701;SDS011;23548;51.196;6.838;2022-12-18T07:38:38;23.05;;;11.65;;
37701;SDS011;23548;51.196;6.838;2022-12-18T07:41:04;22.88;;;11.35;;
37701;SDS011;23548;51.196;6.838;2022-12-18T07:43:32;22.52;;;11.23;;
37701;SDS011;23548;51.196;6.838;2022-12-18T07:45:58;21.48;;;11.90;;
37701;SDS011;23548;51.196;6.838;2022-12-18T07:48:24;20.70;;;10.82;;
37701;SDS011;23548;51.196;6.838;2022-12-18T07:50:50;22.98;;;11.73;;
37701;SDS011;23548;51.196;6.838;2022-12-18T07:53:16;22.17;;;11.52;;
37701;SDS011;23548;51.196;6.838;2022-12-18T07:55:42;24.58;;;12.43;;
37701;SDS011;23548;51.196;6.838;2022-12-18T07:58:08;23.27;;;11.50;;
37701;SDS011;23548;51.196;6.838;2022-12-18T08:00:34;21.42;;;11.82;;
37701;SDS011;23548;51.196;6.838;2022-12-18T08:03:00;23.50;;;12.02;;
37701;SDS011;23548;51.196;6.838;2022-12-18T08:05:29;24.52;;;11.38;;
37701;SDS011;23548;51.196;6.838;2022-12-18T08:07:55;21.42;;;10.20;;
37701;SDS011;23548;51.196;6.838;2022-12-18T08:10:21;20.45;;;11.18;;
37701;SDS011;23548;51.196;6.838;2022-12-18T08:13:03;26.45;;;13.75;;
37701;SDS011;23548;51.196;6.838;2022-12-18T08:15:28;22.67;;;11.00;;
37701;SDS011;23548;51.196;6.838;2022-12-18T08:17:57;20.45;;;11.35;;
37701;SDS011;23548;51.196;6.838;2022-12-18T08:20:23;26.58;;;11.70;;
37701;SDS011;23548;51.196;6.838;2022-12-18T08:22:49;22.55;;;11.32;;
37701;SDS011;23548;51.196;6.838;2022-12-18T08:25:15;23.98;;;12.38;;
37701;SDS011;23548;51.196;6.838;2022-12-18T08:27:40;24.98;;;12.10;;
37701;SDS011;23548;51.196;6.838;2022-12-18T08:30:06;23.05;;;12.60;;
37701;SDS011;23548;51.196;6.838;2022-12-18T08:32:32;21.55;;;11.30;;
37701;SDS011;23548;51.196;6.838;2022-12-18T08:34:58;20.60;;;10.88;;
37701;SDS011;23548;51.196;6.838;2022-12-18T08:37:24;25.05;;;11.60;;
37701;SDS011;23548;51.196;6.838;2022-12-18T08:39:50;22.60;;;11.95;;
37701;SDS011;23548;51.196;6.838;2022-12-18T08:42:16;24.08;;;12.63;;
37701;SDS011;23548;51.196;6.838;2022-12-18T08:45:00;26.95;;;13.20;;
37701;SDS011;23548;51.196;6.838;2022-12-18T08:47:26;21.42;;;11.35;;
37701;SDS011;23548;51.196;6.838;2022-12-18T08:49:52;23.92;;;11.80;;
37701;SDS011;23548;51.196;6.838;2022-12-18T08:52:17;23.70;;;12.00;;
37701;SDS011;23548;51.196;6.838;2022-12-18T08:54:44;26.75;;;12.88;;
37701;SDS011;23548;51.196;6.838;2022-12-18T08:57:09;23.67;;;11.98;;
37701;SDS011;23548;51.196;6.838;2022-12-18T08:59:35;26.17;;;12.43;;
37701;SDS011;23548;51.196;6.838;2022-12-18T09:02:10;25.30;;;12.45;;
37701;SDS011;23548;51.196;6.838;2022-12-18T09:04:36;22.77;;;11.63;;
37701;SDS011;23548;51.196;6.838;2022-12-18T09:07:02;21.35;;;11.70;;
37701;SDS011;23548;51.196;6.838;2022-12-18T09:09:31;27.83;;;12.52;;
37701;SDS011;23548;51.196;6.838;2022-12-18T09:11:56;26.75;;;12.45;;
37701;SDS011;23548;51.196;6.838;2022-12-18T09:14:22;23.40;;;11.68;;
37701;SDS011;23548;51.196;6.838;2022-12-18T09:16:48;22.48;;;11.40;;
37701;SDS011;23548;51.196;6.838;2022-12-18T09:19:13;21.67;;;11.23;;
37701;SDS011;23548;51.196;6.838;2022-12-18T09:21:39;26.77;;;12.38;;
37701;SDS011;23548;51.196;6.838;2022-12-18T09:24:05;23.50;;;12.77;;
37701;SDS011;23548;51.196;6.838;2022-12-18T09:26:31;21.83;;;11.77;;
37701;SDS011;23548;51.196;6.838;2022-12-18T09:28:57;24.55;;;12.20;;
37701;SDS011;23548;51.196;6.838;2022-12-18T09:31:23;24.88;;;11.95;;
37701;SDS011;23548;51.196;6.838;2022-12-18T09:33:49;25.85;;;12.30;;
37701;SDS011;23548;51.196;6.838;2022-12-18T09:36:16;26.55;;;12.77;;
37701;SDS011;23548;51.196;6.838;2022-12-18T09:38:42;25.08;;;12.65;;
37701;SDS011;23548;51.196;6.838;2022-12-18T09:43:57;22.27;;;11.45;;
37701;SDS011;23548;51.196;6.838;2022-12-18T09:46:27;23.80;;;11.80;;
37701;SDS011;23548;51.196;6.838;2022-12-18T09:48:58;23.92;;;12.77;;
37701;SDS011;23548;51.196;6.838;2022-12-18T09:51:28;24.50;;;12.25;;
37701;SDS011;23548;51.196;6.838;2022-12-18T09:54:04;21.58;;;12.18;;
37701;SDS011;23548;51.196;6.838;2022-12-18T09:56:34;26.13;;;12.75;;
37701;SDS011;23548;51.196;6.838;2022-12-18T09:59:03;23.65;;;12.13;;
37701;SDS011;23548;51.196;6.838;2022-12-18T10:01:29;24.10;;;12.27;;
37701;SDS011;23548;51.196;6.838;2022-12-18T10:03:56;24.77;;;12.85;;
37701;SDS011;23548;51.196;6.838;2022-12-18T10:06:25;22.92;;;12.32;;
37701;SDS011;23548;51.196;6.838;2022-12-18T10:09:12;22.75;;;12.38;;
37701;SDS011;23548;51.196;6.838;2022-12-18T10:25:24;25.55;;;12.63;;
37701;SDS011;23548;51.196;6.838;2022-12-18T10:27:52;22.73;;;12.05;;
37701;SDS011;23548;51.196;6.838;2022-12-18T10:30:23;21.88;;;11.75;;
37701;SDS011;23548;51.196;6.838;2022-12-18T10:32:50;21.25;;;12.07;;
37701;SDS011;23548;51.196;6.838;2022-12-18T10:35:21;21.20;;;11.02;;
37701;SDS011;23548;51.196;6.838;2022-12-18T10:38:02;22.23;;;11.43;;
37701;SDS011;23548;51.196;6.838;2022-12-18T10:43:31;21.52;;;11.30;;
37701;SDS011;23548;51.196;6.838;2022-12-18T10:48:39;21.15;;;11.35;;
37701;SDS011;23548;51.196;6.838;2022-12-18T10:56:21;19.13;;;10.52;;
37701;SDS011;23548;51.196;6.838;2022-12-18T10:59:11;21.45;;;10.82;;
37701;SDS011;23548;51.196;6.838;2022-12-18T11:01:56;20.92;;;10.38;;
37701;SDS011;23548;51.196;6.838;2022-12-18T11:04:28;19.70;;;11.43;;
37701;SDS011;23548;51.196;6.838;2022-12-18T11:07:03;21.23;;;11.13;;
37701;SDS011;23548;51.196;6.838;2022-12-18T11:09:32;17.13;;;10.20;;
37701;SDS011;23548;51.196;6.838;2022-12-18T11:12:03;19.58;;;10.35;;
37701;SDS011;23548;51.196;6.838;2022-12-18T11:14:46;22.23;;;11.40;;
37701;SDS011;23548;51.196;6.838;2022-12-18T11:17:30;26.60;;;11.13;;
37701;SDS011;23548;51.196;6.838;2022-12-18T11:20:00;23.02;;;11.30;;
37701;SDS011;23548;51.196;6.838;2022-12-18T11:22:29;21.05;;;11.52;;
37701;SDS011;23548;51.196;6.838;2022-12-18T11:27:40;22.42;;;11.43;;
37701;SDS011;23548;51.196;6.838;2022-12-18T11:30:28;24.38;;;11.52;;
37701;SDS011;23548;51.196;6.838;2022-12-18T11:32:58;23.98;;;11.77;;
37701;SDS011;23548;51.196;6.838;2022-12-18T11:35:33;24.33;;;11.82;;
37701;SDS011;23548;51.196;6.838;2022-12-18T11:38:37;22.80;;;10.80;;
37701;SDS011;23548;51.196;6.838;2022-12-18T11:41:18;25.70;;;11.93;;
37701;SDS011;23548;51.196;6.838;2022-12-18T11:43:50;19.80;;;12.07;;
37701;SDS011;23548;51.196;6.838;2022-12-18T11:46:31;23.67;;;11.48;;
37701;SDS011;23548;51.196;6.838;2022-12-18T11:49:07;24.60;;;11.95;;
37701;SDS011;23548;51.196;6.838;2022-12-18T11:51:49;26.33;;;11.68;;
37701;SDS011;23548;51.196;6.838;2022-12-18T11:54:20;21.48;;;12.05;;
37701;SDS011;23548;51.196;6.838;2022-12-18T11:56:47;24.50;;;11.77;;
37701;SDS011;23548;51.196;6.838;2022-12-18T12:11:31;25.70;;;12.10;;
37701;SDS011;23548;51.196;6.838;2022-12-18T12:17:11;24.75;;;13.35;;
37701;SDS011;23548;51.196;6.838;2022-12-18T12:22:54;24.02;;;12.48;;
37701;SDS011;23548;51.196;6.838;2022-12-18T12:25:36;25.27;;;12.57;;
37701;SDS011;23548;51.196;6.838;2022-12-18T12:28:34;23.85;;;13.20;;
37701;SDS011;23548;51.196;6.838;2022-12-18T12:37:08;28.90;;;14.35;;
37701;SDS011;23548;51.196;6.838;2022-12-18T12:39:50;27.38;;;14.43;;
37701;SDS011;23548;51.196;6.838;2022-12-18T12:45:28;30.75;;;14.85;;
37701;SDS011;23548;51.196;6.838;2022-12-18T12:48:02;25.52;;;13.98;;
37701;SDS011;23548;51.196;6.838;2022-12-18T12:50:34;29.20;;;15.35;;
37701;SDS011;23548;51.196;6.838;2022-12-18T12:53:06;27.23;;;15.02;;
37701;SDS011;23548;51.196;6.838;2022-12-18T12:55:34;38.75;;;14.90;;
37701;SDS011;23548;51.196;6.838;2022-12-18T13:00:53;32.45;;;15.55;;
37701;SDS011;23548;51.196;6.838;2022-12-18T13:06:28;31.42;;;15.57;;
37701;SDS011;23548;51.196;6.838;2022-12-18T13:09:14;28.75;;;16.02;;
37701;SDS011;23548;51.196;6.838;2022-12-18T13:11:49;29.25;;;15.35;;
37701;SDS011;23548;51.196;6.838;2022-12-18T13:14:40;29.25;;;14.63;;
37701;SDS011;23548;51.196;6.838;2022-12-18T13:19:56;32.03;;;15.95;;
37701;SDS011;23548;51.196;6.838;2022-12-18T13:22:32;29.17;;;15.90;;
37701;SDS011;23548;51.196;6.838;2022-12-18T13:25:01;30.85;;;16.63;;
37701;SDS011;23548;51.196;6.838;2022-12-18T13:28:05;31.38;;;15.95;;
37701;SDS011;23548;51.196;6.838;2022-12-18T13:51:47;32.90;;;16.92;;
37701;SDS011;23548;51.196;6.838;2022-12-18T13:54:32;33.97;;;15.27;;
37701;SDS011;23548;51.196;6.838;2022-12-18T13:57:01;29.02;;;16.17;;
37701;SDS011;23548;51.196;6.838;2022-12-18T13:59:36;32.05;;;17.35;;
37701;SDS011;23548;51.196;6.838;2022-12-18T14:02:17;33.80;;;16.45;;
37701;SDS011;23548;51.196;6.838;2022-12-18T14:04:56;37.20;;;16.00;;
37701;SDS011;23548;51.196;6.838;2022-12-18T14:07:23;37.28;;;17.10;;
37701;SDS011;23548;51.196;6.838;2022-12-18T14:10:00;35.15;;;17.17;;
37701;SDS011;23548;51.196;6.838;2022-12-18T14:12:28;30.30;;;17.05;;
37701;SDS011;23548;51.196;6.838;2022-12-18T14:18:23;29.90;;;16.20;;
37701;SDS011;23548;51.196;6.838;2022-12-18T14:20:57;31.13;;;17.10;;
37701;SDS011;23548;51.196;6.838;2022-12-18T14:23:38;31.88;;;16.45;;
37701;SDS011;23548;51.196;6.838;2022-12-18T14:26:21;36.75;;;17.25;;
37701;SDS011;23548;51.196;6.838;2022-12-18T14:28:59;31.52;;;17.75;;
37701;SDS011;23548;51.196;6.838;2022-12-18T14:31:29;34.00;;;18.70;;
37701;SDS011;23548;51.196;6.838;2022-12-18T14:33:58;34.60;;;17.70;;
37701;SDS011;23548;51.196;6.838;2022-12-18T14:36:32;31.85;;;16.70;;
37701;SDS011;23548;51.196;6.838;2022-12-18T14:39:12;36.70;;;17.30;;
37701;SDS011;23548;51.196;6.838;2022-12-18T14:41:43;39.00;;;17.52;;
37701;SDS011;23548;51.196;6.838;2022-12-18T14:44:10;32.28;;;16.67;;
37701;SDS011;23548;51.196;6.838;2022-12-18T14:46:49;41.28;;;18.48;;
37701;SDS011;23548;51.196;6.838;2022-12-18T14:49:32;31.25;;;16.58;;
37701;SDS011;23548;51.196;6.838;2022-12-18T14:52:00;33.95;;;17.67;;
37701;SDS011;23548;51.196;6.838;2022-12-18T14:54:28;33.83;;;16.63;;
37701;SDS011;23548;51.196;6.838;2022-12-18T14:57:03;36.15;;;19.05;;
37701;SDS011;23548;51.196;6.838;2022-12-18T14:59:31;33.90;;;18.48;;
37701;SDS011;23548;51.196;6.838;2022-12-18T15:02:12;36.47;;;17.77;;
37701;SDS011;23548;51.196;6.838;2022-12-18T15:04:44;38.03;;;18.63;;
37701;SDS011;23548;51.196;6.838;2022-12-18T15:07:43;35.28;;;17.20;;
37701;SDS011;23548;51.196;6.838;2022-12-18T15:10:14;36.67;;;18.65;;
37701;SDS011;23548;51.196;6.838;2022-12-18T15:18:04;35.97;;;18.60;;
37701;SDS011;23548;51.196;6.838;2022-12-18T15:23:25;36.83;;;16.60;;
37701;SDS011;23548;51.196;6.838;2022-12-18T15:28:33;37.35;;;20.48;;
37701;SDS011;23548;51.196;6.838;2022-12-18T15:31:29;36.60;;;18.25;;
37701;SDS011;23548;51.196;6.838;2022-12-18T15:36:41;35.85;;;19.90;;
37701;SDS011;23548;51.196;6.838;2022-12-18T15:39:13;41.25;;;20.17;;
37701;SDS011;23548;51.196;6.838;2022-12-18T15:42:00;39.08;;;18.60;;
37701;SDS011;23548;51.196;6.838;2022-12-18T15:45:03;38.28;;;19.35;;
37701;SDS011;23548;51.196;6.838;2022-12-18T15:47:37;44.63;;;19.50;;
37701;SDS011;23548;51.196;6.838;2022-12-18T15:50:12;39.67;;;19.60;;
37701;SDS011;23548;51.196;6.838;2022-12-18T15:52:41;41.35;;;19.40;;
37701;SDS011;23548;51.196;6.838;2022-12-18T15:55:14;41.28;;;20.88;;
37701;SDS011;23548;51.196;6.838;2022-12-18T15:58:01;40.78;;;20.90;;
37701;SDS011;23548;51.196;6.838;2022-12-18T16:00:27;45.55;;;20.25;;
37701;SDS011;23548;51.196;6.838;2022-12-18T16:02:56;41.75;;;20.77;;
37701;SDS011;23548;51.196;6.838;2022-12-18T16:05:24;38.90;;;21.38;;
37701;SDS011;23548;51.196;6.838;2022-12-18T16:07:52;46.28;;;20.08;;
37701;SDS011;23548;51.196;6.838;2022-12-18T16:10:28;36.33;;;19.75;;
37701;SDS011;23548;51.196;6.838;2022-12-18T16:13:01;45.40;;;21.65;;
37701;SDS011;23548;51.196;6.838;2022-12-18T16:15:30;39.85;;;21.05;;
37701;SDS011;23548;51.196;6.838;2022-12-18T16:17:56;42.70;;;21.02;;
37701;SDS011;23548;51.196;6.838;2022-12-18T16:20:22;39.72;;;20.65;;
37701;SDS011;23548;51.196;6.838;2022-12-18T16:22:51;39.00;;;21.23;;
37701;SDS011;23548;51.196;6.838;2022-12-18T16:25:25;39.55;;;19.63;;
37701;SDS011;23548;51.196;6.838;2022-12-18T16:27:55;44.45;;;22.05;;
37701;SDS011;23548;51.196;6.838;2022-12-18T16:30:28;45.33;;;21.23;;
37701;SDS011;23548;51.196;6.838;2022-12-18T16:32:58;42.90;;;21.77;;
37701;SDS011;23548;51.196;6.838;2022-12-18T16:35:25;43.05;;;21.05;;
37701;SDS011;23548;51.196;6.838;2022-12-18T16:37:52;43.08;;;21.75;;
37701;SDS011;23548;51.196;6.838;2022-12-18T16:40:18;44.10;;;22.52;;
37701;SDS011;23548;51.196;6.838;2022-12-18T16:42:48;42.35;;;22.00;;
37701;SDS011;23548;51.196;6.838;2022-12-18T16:45:15;43.05;;;23.13;;
37701;SDS011;23548;51.196;6.838;2022-12-18T16:47:47;49.28;;;22.35;;
37701;SDS011;23548;51.196;6.838;2022-12-18T16:50:14;42.33;;;21.90;;